Arbor Vitae, Wisconsin
Current Conditions -  °F | °C
As of 8:55 PM on Monday 20 Oct 2014 (Local Time) from KARV Reporting Station
Light Rain Light Rain  
Wind Chill: 38°   Ceiling: 1800
Heat Index: 44°   Visibility: 7mi
Dew Point: 42°   Wind: 10mph
Humidity: 93%   Direction: 30°NNE
Pressure: 30.05"   Gusts: 16mph
Location:  45.9553°N, 89.6779°W
Report Text: KARV 210155Z AUTO 03009G14KT 7SM -RA SCT010 BKN018 OVC034 06/05 A3005 RMK AO2 T00640054
Loading
Personal Weather Stations






























Interactive Weather Map
Tropical Storm Tracking
New forecast layout! Learn more

10-Day Weather Forecast

Advertisements
Track Severe Weather on mobile